createdAt,value
2019-04-06T08:43:28.680Z,60.33
2019-04-06T08:48:36.258Z,60.38
2019-04-06T08:53:43.665Z,59.63
2019-04-06T08:58:51.304Z,57.00
2019-04-06T09:03:59.490Z,60.85
2019-04-06T09:09:07.221Z,56.71
2019-04-06T09:14:14.948Z,58.56
2019-04-06T09:19:22.588Z,54.06
2019-04-06T09:24:31.738Z,51.61
2019-04-06T09:29:39.526Z,51.59
2019-04-06T09:34:47.594Z,48.78
2019-04-06T09:39:55.046Z,44.17
2019-04-06T09:45:02.718Z,39.11
2019-04-06T09:50:10.489Z,39.43
2019-04-06T09:55:18.113Z,41.85
2019-04-06T10:00:25.704Z,39.57
2019-04-06T10:05:33.332Z,36.32
2019-04-06T10:10:40.994Z,32.10
2019-04-06T10:15:48.633Z,30.67
2019-04-06T10:20:56.301Z,30.33
2019-04-06T10:26:04.126Z,29.76
2019-04-06T10:31:11.486Z,27.73
2019-04-06T10:36:19.166Z,22.53
2019-04-06T10:41:26.990Z,22.06
2019-04-06T10:46:34.906Z,23.43
2019-04-06T10:51:42.240Z,23.83
2019-04-06T10:56:50.256Z,20.96
2019-04-06T11:01:57.884Z,21.89
2019-04-06T11:07:05.617Z,22.60
2019-04-06T11:12:13.335Z,20.00
2019-04-06T11:17:20.884Z,18.51
2019-04-06T11:22:28.524Z,20.72
2019-04-06T11:27:36.212Z,20.78
2019-04-06T11:32:43.833Z,20.13
2019-04-06T11:37:51.460Z,21.47
2019-04-06T11:42:59.055Z,22.68
2019-04-06T11:48:06.841Z,22.84
2019-04-06T11:53:14.447Z,23.94
2019-04-06T11:58:22.378Z,23.42
2019-04-06T12:03:29.929Z,26.08
2019-04-06T12:08:37.565Z,23.90
2019-04-06T12:13:45.451Z,24.97
2019-04-06T12:18:52.795Z,25.10
2019-04-06T12:24:00.585Z,23.64
2019-04-06T12:29:08.056Z,25.91
2019-04-06T12:34:15.760Z,26.06
2019-04-06T12:39:23.372Z,26.26
2019-04-06T12:44:31.017Z,26.68
2019-04-06T12:49:38.625Z,27.16
2019-04-06T12:54:46.462Z,28.16
2019-04-06T12:59:53.898Z,29.12
2019-04-06T13:05:01.717Z,29.95
2019-04-06T13:10:09.309Z,30.19
2019-04-06T13:15:16.789Z,29.97
2019-04-06T13:20:24.488Z,31.72
2019-04-06T13:25:32.005Z,29.95
2019-04-06T13:30:39.628Z,31.60
2019-04-06T13:35:47.224Z,30.02
2019-04-06T13:40:54.862Z,31.26
2019-04-06T13:46:02.460Z,30.89
2019-04-06T13:51:10.398Z,31.98
2019-04-06T13:56:17.662Z,33.36
2019-04-06T14:01:25.324Z,31.29
2019-04-06T14:06:32.917Z,33.37
2019-04-06T14:11:40.848Z,32.38
2019-04-06T14:16:48.817Z,32.01
2019-04-06T14:21:55.569Z,33.16
2019-04-06T14:27:03.229Z,34.27
2019-04-06T14:32:10.969Z,39.18
2019-04-06T14:37:18.460Z,36.79
2019-04-06T14:42:26.100Z,39.12
2019-04-06T14:47:33.839Z,38.06
2019-04-06T14:52:41.614Z,39.61
2019-04-06T14:57:49.044Z,41.62
2019-04-06T15:02:56.618Z,42.59
2019-04-06T15:08:04.516Z,43.84
2019-04-06T15:13:12.115Z,43.27
2019-04-06T15:18:19.621Z,43.26
2019-04-06T15:23:27.152Z,42.85
2019-04-06T15:28:34.781Z,44.56
2019-04-06T15:33:42.384Z,42.41
2019-04-06T15:38:50.040Z,43.86
2019-04-06T15:43:57.656Z,44.27
2019-04-06T15:49:05.345Z,43.35
2019-04-06T15:54:13.299Z,42.33
2019-04-06T15:59:20.871Z,42.32
2019-04-06T16:04:28.410Z,40.77
2019-04-06T16:09:37.418Z,40.44
2019-04-06T16:14:43.200Z,41.65
2019-04-06T16:19:50.878Z,40.46
2019-04-06T16:24:58.548Z,40.19
2019-04-06T16:30:06.242Z,41.12
2019-04-06T16:35:13.936Z,40.45
2019-04-06T16:40:21.548Z,40.95
2019-04-06T16:45:29.817Z,40.94
2019-04-06T16:50:37.573Z,40.56
2019-04-06T16:55:45.359Z,39.42
2019-04-06T17:00:52.383Z,41.83
2019-04-06T17:06:00.482Z,45.78
2019-04-06T17:11:07.310Z,43.67
2019-04-06T17:16:14.848Z,42.89
2019-04-06T17:21:22.885Z,43.64
2019-04-06T17:26:29.612Z,42.37
2019-04-06T17:31:37.288Z,41.90
2019-04-06T17:36:45.325Z,42.34
2019-04-06T17:41:52.103Z,44.06
2019-04-06T17:46:59.660Z,42.50
2019-04-06T17:52:07.492Z,46.73
2019-04-06T17:57:15.212Z,46.83
2019-04-06T18:02:22.548Z,45.47
2019-04-06T18:07:30.224Z,45.58
2019-04-06T18:12:38.238Z,44.38
2019-04-06T18:17:45.811Z,46.86
2019-04-06T18:22:53.703Z,55.99
2019-04-06T18:28:00.976Z,56.06
2019-04-06T18:33:08.579Z,58.75
2019-04-06T18:38:16.216Z,61.86
2019-04-06T18:43:23.972Z,64.88
2019-04-06T18:49:13.624Z,38.14
2019-04-06T18:54:11.804Z,42.05
2019-04-06T18:59:18.468Z,42.83
2019-04-06T19:04:26.152Z,43.42
2019-04-06T19:09:33.811Z,44.21
2019-04-06T19:14:41.588Z,47.49
2019-04-06T19:19:49.016Z,47.81
2019-04-06T19:24:56.695Z,48.56
2019-04-06T19:30:04.359Z,50.41
2019-04-06T19:35:12.168Z,52.44
2019-04-06T19:40:19.516Z,53.26
2019-04-06T19:45:27.128Z,52.55
2019-04-06T19:50:35.333Z,55.41
2019-04-06T19:55:41.893Z,52.65
2019-04-06T20:00:49.908Z,53.66
2019-04-06T20:05:57.212Z,55.72
2019-04-06T20:11:03.856Z,54.74
2019-04-06T20:16:12.072Z,55.94
2019-04-06T20:21:19.065Z,59.20
2019-04-06T20:26:25.756Z,58.93
2019-04-06T20:31:33.393Z,59.73
2019-04-06T20:36:40.996Z,60.08
2019-04-06T20:41:48.642Z,59.39
2019-04-06T20:46:56.240Z,62.95
2019-04-06T20:52:04.414Z,61.73
2019-04-06T20:57:11.014Z,60.41
2019-04-06T21:02:19.266Z,63.52
2019-04-06T21:07:25.777Z,58.54
2019-04-06T21:12:33.424Z,61.12
2019-04-06T21:17:41.033Z,62.96
2019-04-06T21:22:48.712Z,61.00
2019-04-06T21:27:56.819Z,64.30
2019-04-06T21:33:03.548Z,61.89
2019-04-06T21:38:11.173Z,64.44
2019-04-06T21:43:18.867Z,64.74
2019-04-06T21:48:26.982Z,63.95
2019-04-06T21:53:33.558Z,63.34
2019-04-06T21:58:41.491Z,64.25
2019-04-06T22:03:48.772Z,64.17
2019-04-06T22:08:56.785Z,62.82
2019-04-06T22:14:03.549Z,63.99
2019-04-06T22:19:11.200Z,63.77
2019-04-06T22:24:18.805Z,60.47
2019-04-06T22:29:26.501Z,58.62
2019-04-06T22:34:38.541Z,60.18
2019-04-06T22:39:41.312Z,61.60
2019-04-06T22:44:48.916Z,60.39
2019-04-06T22:49:56.592Z,64.11
2019-04-06T22:55:04.221Z,59.85
2019-04-06T23:00:12.430Z,62.01
2019-04-06T23:05:19.024Z,60.72
2019-04-06T23:10:26.695Z,61.92
2019-04-06T23:15:34.380Z,62.17
2019-04-06T23:20:42.663Z,62.44
2019-04-06T23:25:49.362Z,66.38
2019-04-06T23:30:57.020Z,62.48
2019-04-06T23:36:04.396Z,68.96
2019-04-06T23:41:12.040Z,68.13
2019-04-06T23:46:19.657Z,69.60
2019-04-06T23:51:27.278Z,74.71
2019-04-06T23:56:35.154Z,75.41
